Time;durP1;ratioP1;P1;durP2;ratioP2;P2;SDS_P1;SDS_P2;PMS_P1;PMS_P2;Temp;Humidity;BMP_temperature;BMP_pressure;BME280_temperature;BME280_humidity;BME280_pressure;Samples;Min_cycle;Max_cycle;Signal;HPM_P1;HPM_P2
2022/11/28 00:00:39;;;;;;;79.30;64.63;;;;;;;7.10;100.00;102520.13;2072076;28;20615;-67
2022/11/28 00:01:42;;;;;;;89.33;72.07;;;;;;;7.03;100.00;102529.03;2072268;28;20235;-67
2022/11/28 00:02:43;;;;;;;72.93;58.90;;;;;;;7.05;100.00;102523.16;2071381;28;20178;-67
2022/11/28 00:03:43;;;;;;;82.20;67.37;;;;;;;7.05;100.00;102523.16;2072064;28;20186;-67
2022/11/28 00:04:44;;;;;;;88.30;70.27;;;;;;;7.06;100.00;102527.53;2072121;28;20210;-67
2022/11/28 00:05:44;;;;;;;85.67;69.70;;;;;;;7.07;100.00;102523.63;2071204;28;20680;-67
2022/11/28 00:06:48;;;;;;;83.67;67.43;;;;;;;6.51;100.00;102437.00;2072252;28;20261;-67
2022/11/28 00:07:49;;;;;;;86.25;67.18;;;;;;;7.03;100.00;102526.28;2072053;28;20182;-67
2022/11/28 00:08:49;;;;;;;84.60;67.17;;;;;;;7.02;100.00;102519.19;2071438;28;20673;-67
2022/11/28 00:09:51;;;;;;;80.67;66.17;;;;;;;7.03;100.00;102531.81;2072002;28;20560;-67
2022/11/28 00:10:52;;;;;;;78.40;64.38;;;;;;;7.03;100.00;102520.78;2071936;28;20170;-67
2022/11/28 00:11:52;;;;;;;74.20;60.73;;;;;;;7.06;100.00;102522.81;2072276;28;20185;-67
2022/11/28 00:12:52;;;;;;;77.77;63.90;;;;;;;7.00;100.00;102521.50;2072048;28;20193;-67
2022/11/28 00:13:53;;;;;;;74.60;60.10;;;;;;;6.78;100.00;102475.38;2072159;28;20171;-67
2022/11/28 00:14:54;;;;;;;74.72;60.10;;;;;;;7.08;100.00;102528.75;2071840;28;20191;-67
2022/11/28 00:15:59;;;;;;;72.23;58.13;;;;;;;7.07;100.00;102531.91;2071490;28;20183;-67
2022/11/28 00:17:00;;;;;;;69.18;57.58;;;;;;;7.04;100.00;102521.59;2071867;28;20172;-67
2022/11/28 00:18:00;;;;;;;72.20;58.53;;;;;;;7.04;100.00;102524.34;2072196;28;20184;-67
2022/11/28 00:19:02;;;;;;;69.37;55.57;;;;;;;7.08;100.00;102522.47;2071487;28;20181;-67
2022/11/28 00:20:03;;;;;;;71.25;55.00;;;;;;;6.63;100.00;102450.63;2071720;28;20721;-67
2022/11/28 00:21:07;;;;;;;69.32;55.35;;;;;;;7.04;100.00;102521.59;2071870;28;20182;-67
2022/11/28 00:22:07;;;;;;;69.15;55.97;;;;;;;7.03;100.00;102531.03;2072286;28;20190;-67
2022/11/28 00:23:08;;;;;;;70.07;56.00;;;;;;;7.01;100.00;102525.88;2071721;28;20664;-67
2022/11/28 00:24:08;;;;;;;73.20;57.23;;;;;;;6.50;100.00;102443.66;2072126;28;20272;-67
2022/11/28 00:25:09;;;;;;;68.33;55.10;;;;;;;7.04;100.00;102525.16;2071188;28;20187;-67
2022/11/28 00:26:14;;;;;;;74.37;56.97;;;;;;;7.01;100.00;102514.84;2071930;28;20265;-67
2022/11/28 00:27:14;;;;;;;68.50;55.53;;;;;;;7.06;100.00;102530.28;2071685;28;20174;-67
2022/11/28 00:28:15;;;;;;;71.47;55.83;;;;;;;7.07;100.00;102531.91;2072193;28;20664;-67
2022/11/28 00:29:15;;;;;;;66.80;55.73;;;;;;;6.15;100.00;102385.88;2071433;28;20191;-67
2022/11/28 00:30:16;;;;;;;69.13;56.13;;;;;;;7.09;100.00;102530.38;2072276;28;20192;-67
2022/11/28 00:31:22;;;;;;;67.33;54.27;;;;;;;7.08;100.00;102527.97;2071802;28;20754;-67
2022/11/28 00:32:22;;;;;;;69.65;55.95;;;;;;;7.08;100.00;102533.50;2072043;28;20182;-67
2022/11/28 00:33:24;;;;;;;69.47;55.13;;;;;;;7.08;100.00;102526.00;2071871;28;20215;-67
2022/11/28 00:34:24;;;;;;;67.65;54.35;;;;;;;7.10;100.00;102533.91;2071907;28;20191;-67
2022/11/28 00:35:24;;;;;;;69.93;54.47;;;;;;;7.14;100.00;102526.53;2070914;28;20980;-67
2022/11/28 00:36:25;;;;;;;69.80;55.30;;;;;;;7.14;100.00;102526.53;2071978;28;20639;-67
2022/11/28 00:37:25;;;;;;;70.23;56.20;;;;;;;7.09;100.00;102533.13;2070882;28;20242;-67
2022/11/28 00:38:26;;;;;;;71.07;55.77;;;;;;;6.59;100.00;102447.81;2072124;28;20217;-67
2022/11/28 00:39:26;;;;;;;68.23;54.50;;;;;;;7.10;100.00;102528.41;2071171;28;20197;-67
2022/11/28 00:40:27;;;;;;;70.20;56.40;;;;;;;7.13;100.00;102527.69;2071921;28;20247;-67
2022/11/28 00:41:29;;;;;;;70.80;55.67;;;;;;;7.14;100.00;102532.03;2071802;28;20280;-67
2022/11/28 00:43:50;;;;;;;66.40;52.97;;;;;;;7.11;100.00;102536.31;2071828;28;20301;-67
2022/11/28 00:44:50;;;;;;;70.35;55.13;;;;;;;7.15;100.00;102533.63;2071892;28;20184;-67
2022/11/28 00:45:51;;;;;;;68.33;53.73;;;;;;;7.14;100.00;102530.09;2070979;28;20652;-67
2022/11/28 00:46:51;;;;;;;70.17;55.13;;;;;;;6.96;100.00;102500.53;2070502;28;20248;-67
2022/11/28 00:47:52;;;;;;;67.53;52.47;;;;;;;7.10;100.00;102517.38;2071827;28;20187;-67
2022/11/28 00:48:52;;;;;;;69.13;55.00;;;;;;;6.98;100.00;102501.75;2071455;28;20667;-67
2022/11/28 00:49:53;;;;;;;64.20;53.33;;;;;;;7.18;100.00;102525.41;2072034;28;20194;-67
2022/11/28 00:50:54;;;;;;;71.27;55.90;;;;;;;7.17;100.00;102523.03;2072019;28;20657;-67
2022/11/28 00:51:54;;;;;;;70.57;57.03;;;;;;;7.17;100.00;102521.06;2072039;28;20188;-66
2022/11/28 00:52:55;;;;;;;69.70;55.90;;;;;;;7.18;100.00;102530.16;2071792;28;20195;-66
2022/11/28 00:53:57;;;;;;;70.13;56.57;;;;;;;7.18;100.00;102527.41;2071630;28;20189;-66
2022/11/28 00:54:58;;;;;;;67.18;53.78;;;;;;;7.18;100.00;102528.16;2071302;28;20665;-67
2022/11/28 00:55:58;;;;;;;73.70;56.23;;;;;;;7.15;100.00;102522.59;2070369;28;20876;-67
2022/11/28 00:56:58;;;;;;;69.83;55.60;;;;;;;7.19;100.00;102528.97;2071532;28;20177;-67
2022/11/28 00:57:59;;;;;;;71.40;54.47;;;;;;;7.21;100.00;102527.47;2072045;28;20257;-67
2022/11/28 00:59:00;;;;;;;74.10;56.90;;;;;;;7.23;100.00;102527.09;2070869;28;20195;-67
2022/11/28 01:00:00;;;;;;;68.17;54.43;;;;;;;7.22;100.00;102522.75;2071945;28;20223;-67
2022/11/28 01:01:13;;;;;;;65.60;54.80;;;;;;;7.20;100.00;102527.81;2071641;28;20573;-67
2022/11/28 01:02:14;;;;;;;67.50;53.53;;;;;;;7.21;100.00;102530.22;2071898;28;20192;-67
2022/11/28 01:03:14;;;;;;;71.10;56.00;;;;;;;7.22;100.00;102528.28;2070753;28;20528;-67
2022/11/28 01:04:19;;;;;;;65.60;53.47;;;;;;;6.75;100.00;102443.03;2071857;28;20200;-67
2022/11/28 01:05:19;;;;;;;70.90;54.42;;;;;;;7.25;100.00;102519.25;2070570;28;20197;-67
2022/11/28 01:06:34;;;;;;;66.10;52.73;;;;;;;6.92;100.00;102472.13;2071873;28;20183;-67
2022/11/28 01:07:35;;;;;;;67.57;52.95;;;;;;;7.27;100.00;102519.69;2070797;28;20635;-67
2022/11/28 01:08:36;;;;;;;65.53;53.33;;;;;;;7.25;100.00;102522.81;2071596;28;20686;-67
2022/11/28 01:09:37;;;;;;;66.90;53.65;;;;;;;7.26;100.00;102518.88;2071349;28;20184;-67
2022/11/28 01:10:43;;;;;;;69.37;53.33;;;;;;;7.25;100.00;102517.31;2071723;28;20194;-67
2022/11/28 01:11:44;;;;;;;66.72;53.47;;;;;;;7.26;100.00;102523.59;2071773;28;20216;-67
2022/11/28 01:12:45;;;;;;;63.78;50.55;;;;;;;7.24;100.00;102520.41;2071670;28;20257;-67
2022/11/28 01:13:45;;;;;;;66.77;53.27;;;;;;;7.24;100.00;102525.94;2071604;28;20213;-67
2022/11/28 01:14:46;;;;;;;58.03;47.30;;;;;;;6.25;100.00;102366.03;2071636;28;20206;-67
2022/11/28 01:15:46;;;;;;;56.40;47.57;;;;;;;7.20;100.00;102522.31;2070737;28;20200;-67
2022/11/28 01:16:47;;;;;;;65.63;51.40;;;;;;;7.20;100.00;102519.53;2071448;28;20620;-66
2022/11/28 01:17:47;;;;;;;66.53;52.10;;;;;;;7.20;100.00;102516.78;2071765;28;20265;-67
2022/11/28 01:18:48;;;;;;;66.60;54.10;;;;;;;7.20;100.00;102514.03;2071161;28;20175;-67
2022/11/28 01:19:48;;;;;;;60.40;51.17;;;;;;;7.19;100.00;102512.44;2071572;28;20591;-67
2022/11/28 01:20:49;;;;;;;60.60;50.27;;;;;;;6.71;100.00;102433.13;2071703;28;20182;-67
2022/11/28 01:21:49;;;;;;;59.50;49.93;;;;;;;7.22;100.00;102512.50;2071462;28;20241;-66
2022/11/28 01:22:50;;;;;;;61.67;52.23;;;;;;;7.21;100.00;102512.88;2071508;28;20182;-67
2022/11/28 01:23:50;;;;;;;58.93;49.47;;;;;;;7.22;100.00;102518.03;2071385;28;20236;-67
2022/11/28 01:24:51;;;;;;;63.03;51.80;;;;;;;7.21;100.00;102510.91;2071473;28;20249;-66
2022/11/28 01:25:51;;;;;;;60.90;50.23;;;;;;;7.18;100.00;102517.16;2070634;28;20195;-67
2022/11/28 01:26:51;;;;;;;59.07;49.93;;;;;;;7.18;100.00;102519.13;2071716;28;20571;-67
2022/11/28 01:27:52;;;;;;;59.33;50.03;;;;;;;7.17;100.00;102515.56;2071805;28;20223;-67
2022/11/28 01:28:53;;;;;;;64.13;54.77;;;;;;;7.12;100.00;102509.56;2070881;28;20248;-67
2022/11/28 01:29:54;;;;;;;62.08;52.22;;;;;;;7.13;100.00;102508.38;2071638;28;20198;-67
2022/11/28 01:30:54;;;;;;;62.90;51.93;;;;;;;7.11;100.00;102511.50;2071360;28;20184;-67
2022/11/28 01:31:56;;;;;;;61.10;51.73;;;;;;;7.13;100.00;102508.38;2071542;28;20270;-67
2022/11/28 01:32:56;;;;;;;59.60;50.43;;;;;;;7.13;100.00;102508.38;2071383;28;20247;-67
2022/11/28 01:33:57;;;;;;;64.23;52.37;;;;;;;7.12;100.00;102512.31;2071517;28;20420;-67
2022/11/28 01:34:58;;;;;;;63.03;51.70;;;;;;;7.07;100.00;102498.81;2071255;28;20192;-67
2022/11/28 01:35:59;;;;;;;71.60;55.63;;;;;;;7.14;100.00;102510.78;2071188;28;20221;-67
2022/11/28 01:36:59;;;;;;;67.40;55.60;;;;;;;7.10;100.00;102500.81;2071473;28;20598;-67
2022/11/28 01:37:59;;;;;;;62.67;52.20;;;;;;;7.13;100.00;102505.63;2070697;28;20446;-67
2022/11/28 01:39:00;;;;;;;63.77;52.13;;;;;;;6.95;100.00;102482.41;2070779;28;20197;-67
2022/11/28 01:40:00;;;;;;;65.07;52.90;;;;;;;6.59;100.00;102422.22;2071544;28;20187;-67
2022/11/28 01:41:01;;;;;;;63.77;52.60;;;;;;;7.13;100.00;102508.38;2071244;28;20181;-67
2022/11/28 01:42:01;;;;;;;62.50;52.00;;;;;;;7.13;100.00;102511.16;2071704;28;20278;-67
2022/11/28 01:43:02;;;;;;;59.73;49.97;;;;;;;7.03;100.00;102493.19;2071532;28;20185;-67
2022/11/28 01:44:04;;;;;;;61.40;49.57;;;;;;;7.14;100.00;102512.72;2071422;28;20194;-67
2022/11/28 01:45:12;;;;;;;59.28;51.00;;;;;;;7.14;100.00;102507.22;2070983;28;20563;-67
2022/11/28 01:46:13;;;;;;;64.83;50.97;;;;;;;7.15;100.00;102514.31;2071424;28;20610;-67
2022/11/28 01:47:16;;;;;;;60.83;48.57;;;;;;;7.08;100.00;102501.19;2071371;28;20424;-67
2022/11/28 01:48:22;;;;;;;60.78;49.70;;;;;;;7.13;100.00;102511.16;2071599;28;20255;-67
2022/11/28 01:49:36;;;;;;;58.80;49.58;;;;;;;7.01;100.00;102512.06;2070672;28;20185;-67
2022/11/28 01:50:37;;;;;;;65.60;50.33;;;;;;;7.17;100.00;102509.25;2070678;28;20194;-67
2022/11/28 01:51:41;;;;;;;60.00;50.97;;;;;;;6.43;100.00;102397.50;2071314;28;20194;-67
2022/11/28 01:52:44;;;;;;;60.92;48.92;;;;;;;6.68;100.00;102442.91;2071323;28;20229;-67
2022/11/28 01:53:46;;;;;;;62.42;50.55;;;;;;;7.16;100.00;102513.97;2071419;28;20185;-66
2022/11/28 01:54:52;;;;;;;58.15;48.33;;;;;;;7.14;100.00;102502.50;2071098;28;20665;-67
2022/11/28 01:56:05;;;;;;;60.15;49.25;;;;;;;7.17;100.00;102514.78;2070454;28;20260;-67
2022/11/28 01:57:08;;;;;;;58.97;48.47;;;;;;;7.17;100.00;102514.78;2071205;28;20622;-67
2022/11/28 01:58:10;;;;;;;54.20;46.42;;;;;;;7.18;100.00;102510.84;2071633;28;20183;-67
2022/11/28 01:59:14;;;;;;;55.63;46.88;;;;;;;7.19;100.00;102516.00;2070311;28;20188;-67
2022/11/28 02:00:17;;;;;;;52.08;44.75;;;;;;;7.18;100.00;102503.34;2071788;28;20219;-67
2022/11/28 02:01:20;;;;;;;55.25;45.85;;;;;;;7.22;100.00;102506.22;2071372;28;20219;-67
2022/11/28 02:02:38;;;;;;;54.17;45.03;;;;;;;7.22;100.00;102509.75;2071502;28;20225;-66
2022/11/28 02:03:43;;;;;;;53.78;44.00;;;;;;;7.19;100.00;102507.72;2071202;28;20603;-67
2022/11/28 02:04:45;;;;;;;53.42;43.70;;;;;;;7.18;100.00;102513.59;2071412;28;20696;-66
2022/11/28 02:05:49;;;;;;;53.88;45.17;;;;;;;7.22;100.00;102517.25;2070439;28;20184;-67
2022/11/28 02:06:49;;;;;;;53.97;44.38;;;;;;;7.07;100.00;102482.28;2071359;28;20193;-66
2022/11/28 02:07:51;;;;;;;54.13;44.93;;;;;;;7.23;100.00;102513.31;2073004;28;20179;-67
2022/11/28 02:08:53;;;;;;;53.42;43.08;;;;;;;7.25;100.00;102517.31;2072386;28;20663;-67
2022/11/28 02:09:54;;;;;;;50.90;42.60;;;;;;;7.24;100.00;102512.16;2071935;28;20185;-67
2022/11/28 02:11:21;;;;;;;53.83;43.63;;;;;;;7.22;100.00;102512.50;2072680;28;20311;-67
2022/11/28 02:12:27;;;;;;;53.75;43.63;;;;;;;7.25;100.00;102516.50;2057234;28;20208;-66
2022/11/28 02:14:21;;;;;;;52.58;42.58;;;;;;;7.21;100.00;102510.91;2072865;28;20665;-67
2022/11/28 02:15:46;;;;;;;50.95;41.05;;;;;;;7.21;100.00;102499.88;2054637;28;20183;-66
2022/11/28 02:17:14;;;;;;;51.00;41.55;;;;;;;7.18;100.00;102508.88;2054218;28;20275;-67
2022/11/28 02:18:22;;;;;;;51.72;42.13;;;;;;;7.20;100.00;102500.25;2073216;28;20204;-67
2022/11/28 02:19:34;;;;;;;54.30;42.28;;;;;;;7.20;100.00;102500.25;2072225;28;20677;-67
2022/11/28 02:20:37;;;;;;;54.55;43.15;;;;;;;7.20;100.00;102508.50;2073147;28;20192;-67
2022/11/28 02:22:08;;;;;;;54.97;42.40;;;;;;;7.18;100.00;102500.59;2071977;28;20188;-67
2022/11/28 02:23:47;;;;;;;54.88;41.00;;;;;;;7.20;100.00;102498.28;2072884;28;20804;-67
2022/11/28 02:25:25;;;;;;;51.85;40.42;;;;;;;7.21;100.00;102493.56;2072700;28;20171;-67
2022/11/28 02:26:28;;;;;;;50.55;39.63;;;;;;;7.16;100.00;102491.91;2072369;28;20195;-67
2022/11/28 02:27:31;;;;;;;55.10;42.00;;;;;;;7.16;100.00;102497.41;2072872;28;20197;-67
2022/11/28 02:28:55;;;;;;;50.95;40.75;;;;;;;7.17;100.00;102492.72;2072112;28;20196;-67
2022/11/28 02:30:07;;;;;;;50.30;40.83;;;;;;;7.18;100.00;102495.09;2073153;28;20187;-67
2022/11/28 02:31:26;;;;;;;48.85;38.85;;;;;;;7.17;100.00;102493.50;2072537;28;20580;-67
2022/11/28 02:32:49;;;;;;;50.72;40.08;;;;;;;7.15;100.00;102493.06;2072186;28;20683;-67
2022/11/28 02:33:55;;;;;;;48.83;38.80;;;;;;;7.23;100.00;102496.78;2072129;28;20174;-67
2022/11/28 02:34:59;;;;;;;49.75;39.63;;;;;;;7.22;100.00;102495.19;2071756;28;20666;-67
2022/11/28 02:36:14;;;;;;;47.90;38.97;;;;;;;7.23;100.00;102502.28;2072377;28;20182;-67
2022/11/28 02:37:49;;;;;;;45.88;38.08;;;;;;;7.23;100.00;102503.06;2071851;28;20180;-66
2022/11/28 02:39:01;;;;;;;48.42;38.13;;;;;;;7.18;100.00;102495.09;2071165;28;20240;-67
2022/11/28 02:40:13;;;;;;;49.90;38.20;;;;;;;6.33;100.00;102370.53;2072699;28;20632;-67
2022/11/28 02:41:37;;;;;;;48.70;39.15;;;;;;;7.15;100.00;102489.50;2072576;28;20734;-67
2022/11/28 02:42:59;;;;;;;45.72;37.28;;;;;;;7.21;100.00;102488.84;2072120;28;20193;-67
2022/11/28 02:44:09;;;;;;;46.03;37.67;;;;;;;7.23;100.00;102497.53;2072828;28;20187;-67
2022/11/28 02:45:16;;;;;;;44.47;37.30;;;;;;;6.73;100.00;102417.81;2072042;28;20216;-67
2022/11/28 02:46:27;;;;;;;48.33;38.17;;;;;;;7.24;100.00;102487.31;2072681;28;20207;-67
2022/11/28 02:47:34;;;;;;;45.00;37.35;;;;;;;6.48;100.00;102366.13;2072287;28;20230;-67
2022/11/28 02:48:50;;;;;;;48.22;39.22;;;;;;;7.26;100.00;102490.50;2072033;28;20197;-67
2022/11/28 02:50:03;;;;;;;47.90;38.55;;;;;;;7.26;100.00;102483.03;2072455;28;20170;-67
2022/11/28 02:51:26;;;;;;;51.13;40.50;;;;;;;7.24;100.00;102488.13;2071534;28;20186;-67
2022/11/28 02:52:55;;;;;;;46.35;39.05;;;;;;;7.23;100.00;102491.25;2072878;28;20607;-67
2022/11/28 02:53:57;;;;;;;46.42;38.60;;;;;;;7.14;100.00;102472.19;2068339;28;20207;-66
2022/11/28 02:54:59;;;;;;;48.08;40.03;;;;;;;7.18;100.00;102489.56;2072346;28;20316;-67
2022/11/28 02:56:00;;;;;;;48.00;40.47;;;;;;;7.21;100.00;102485.28;2071980;28;20228;-67
2022/11/28 02:57:01;;;;;;;47.50;41.13;;;;;;;7.20;100.00;102476.25;2072532;28;20197;-67
2022/11/28 02:58:02;;;;;;;48.25;40.22;;;;;;;7.18;100.00;102472.25;2072788;28;20221;-67
2022/11/28 02:59:03;;;;;;;46.90;39.00;;;;;;;7.24;100.00;102479.88;2071697;28;20189;-67
2022/11/28 03:00:36;;;;;;;50.05;40.78;;;;;;;7.23;100.00;102485.75;2072936;28;20183;-67
2022/11/28 03:01:37;;;;;;;47.33;38.90;;;;;;;7.20;100.00;102484.50;2072317;28;20217;-67
2022/11/28 03:02:38;;;;;;;48.25;39.15;;;;;;;7.17;100.00;102479.72;2072608;28;20194;-67
2022/11/28 03:03:59;;;;;;;44.83;37.70;;;;;;;6.97;100.00;102447.81;2072339;28;20181;-67
2022/11/28 03:05:19;;;;;;;47.00;38.78;;;;;;;7.22;100.00;102484.16;2072112;28;20413;-67
2022/11/28 03:06:46;;;;;;;45.33;36.65;;;;;;;7.22;100.00;102478.63;2072747;28;20568;-67
2022/11/28 03:08:09;;;;;;;44.47;37.03;;;;;;;7.20;100.00;102481.75;2072684;28;20190;-67
2022/11/28 03:09:31;;;;;;;44.80;36.33;;;;;;;7.18;100.00;102475.78;2071583;28;20194;-67
2022/11/28 03:11:09;;;;;;;44.55;35.60;;;;;;;7.20;100.00;102480.94;2071999;28;20206;-67
2022/11/28 03:12:25;;;;;;;43.13;34.35;;;;;;;7.18;100.00;102484.06;2072255;28;20651;-66
2022/11/28 03:13:45;;;;;;;43.25;34.35;;;;;;;7.17;100.00;102482.47;2071458;28;20201;-67
2022/11/28 03:14:53;;;;;;;43.53;33.95;;;;;;;7.16;100.00;102480.88;2072696;28;20205;-66
2022/11/28 03:16:15;;;;;;;43.50;33.95;;;;;;;7.16;100.00;102483.63;2071874;28;20556;-67
2022/11/28 03:17:43;;;;;;;43.28;33.97;;;;;;;7.14;100.00;102480.47;2072356;28;20209;-67
2022/11/28 03:19:21;;;;;;;42.17;33.92;;;;;;;7.12;100.00;102474.50;2070857;28;20185;-67
2022/11/28 03:20:36;;;;;;;42.55;33.13;;;;;;;6.95;100.00;102458.41;2054390;28;20298;-67
2022/11/28 03:21:46;;;;;;;42.67;33.35;;;;;;;7.01;100.00;102461.66;2072515;28;20190;-67
2022/11/28 03:23:04;;;;;;;42.42;33.58;;;;;;;7.10;100.00;102476.81;2072457;28;20297;-66
2022/11/28 03:24:27;;;;;;;41.63;34.22;;;;;;;7.13;100.00;102478.06;2072599;28;20191;-67
2022/11/28 03:25:53;;;;;;;46.33;35.20;;;;;;;7.01;100.00;102459.69;2071271;28;20658;-67
2022/11/28 03:27:10;;;;;;;42.10;34.65;;;;;;;7.13;100.00;102473.31;2072394;28;20170;-67
2022/11/28 03:28:29;;;;;;;41.10;33.33;;;;;;;7.10;100.00;102482.34;2072746;28;20562;-67
2022/11/28 03:29:42;;;;;;;43.88;34.28;;;;;;;6.99;100.00;102462.03;2071546;28;20175;-67
2022/11/28 03:30:57;;;;;;;43.65;34.72;;;;;;;6.16;100.00;102326.13;2072414;28;20184;-66
2022/11/28 03:32:02;;;;;;;43.22;35.22;;;;;;;7.08;100.00;102467.31;2072487;28;20194;-67
2022/11/28 03:33:04;;;;;;;43.25;36.10;;;;;;;7.13;100.00;102476.06;2072289;28;20175;-67
2022/11/28 03:34:10;;;;;;;40.42;35.33;;;;;;;6.82;100.00;102417.59;2072534;28;20221;-67
2022/11/28 03:35:15;;;;;;;45.65;38.15;;;;;;;7.16;100.00;102472.59;2071429;28;20670;-67
2022/11/28 03:36:33;;;;;;;43.03;37.08;;;;;;;7.10;100.00;102463.03;2072724;28;20860;-66
2022/11/28 03:37:39;;;;;;;45.60;37.83;;;;;;;7.17;100.00;102474.19;2070914;28;20554;-67
2022/11/28 03:38:44;;;;;;;42.25;34.95;;;;;;;7.14;100.00;102463.91;2071766;28;20675;-66
2022/11/28 03:39:49;;;;;;;45.78;38.30;;;;;;;7.16;100.00;102475.38;2072364;28;20200;-67
2022/11/28 03:40:54;;;;;;;45.25;36.78;;;;;;;7.14;100.00;102474.94;2072209;28;20258;-66
2022/11/28 03:42:01;;;;;;;42.30;35.67;;;;;;;7.16;100.00;102472.59;2072592;28;20182;-67
2022/11/28 03:43:06;;;;;;;45.75;36.70;;;;;;;7.17;100.00;102476.16;2072430;28;20191;-67
2022/11/28 03:44:12;;;;;;;42.63;36.45;;;;;;;7.12;100.00;102468.19;2072213;28;20179;-67
2022/11/28 03:45:22;;;;;;;45.90;37.40;;;;;;;7.11;100.00;102467.38;2071256;28;20631;-67
2022/11/28 03:46:30;;;;;;;46.67;38.08;;;;;;;7.19;100.00;102476.59;2072617;28;20662;-66
2022/11/28 03:47:37;;;;;;;45.35;36.35;;;;;;;7.25;100.00;102473.19;2072122;28;20636;-67
2022/11/28 03:48:41;;;;;;;40.25;33.90;;;;;;;6.88;100.00;102430.69;2072174;28;20195;-66
2022/11/28 03:49:49;;;;;;;42.63;33.50;;;;;;;7.25;100.00;102475.13;2072157;28;20225;-67
2022/11/28 03:51:16;;;;;;;39.85;32.97;;;;;;;7.26;100.00;102477.53;2072352;28;20268;-67
2022/11/28 03:52:39;;;;;;;40.55;33.17;;;;;;;7.24;100.00;102476.28;2059868;28;20214;-66
2022/11/28 03:54:04;;;;;;;41.92;33.83;;;;;;;7.24;100.00;102481.81;2071442;28;20174;-67
2022/11/28 03:55:11;;;;;;;42.20;34.35;;;;;;;7.23;100.00;102480.22;2071614;28;20208;-67
2022/11/28 03:56:20;;;;;;;39.78;32.75;;;;;;;7.21;100.00;102483.34;2072349;28;20188;-66
2022/11/28 03:57:30;;;;;;;44.38;35.58;;;;;;;7.22;100.00;102481.41;2072132;28;20216;-67
2022/11/28 03:58:46;;;;;;;43.30;35.33;;;;;;;6.35;100.00;102339.91;2072330;28;20184;-67
2022/11/28 03:59:50;;;;;;;44.70;36.28;;;;;;;7.23;100.00;102482.97;2072075;28;20205;-67
2022/11/28 04:01:20;;;;;;;40.85;34.65;;;;;;;7.25;100.00;102478.69;2072176;28;20185;-67
2022/11/28 04:02:55;;;;;;;46.78;35.88;;;;;;;7.28;100.00;102477.16;2072437;28;21094;-67
2022/11/28 04:04:11;;;;;;;40.55;32.92;;;;;;;7.24;100.00;102481.81;2055861;28;20183;-67
2022/11/28 04:05:20;;;;;;;38.70;33.63;;;;;;;7.27;100.00;102475.53;2071112;28;20288;-67
2022/11/28 04:06:25;;;;;;;40.30;34.42;;;;;;;7.25;100.00;102484.22;2072268;28;20199;-67
2022/11/28 04:07:35;;;;;;;40.08;34.42;;;;;;;7.28;100.00;102482.69;2071864;28;20263;-67
2022/11/28 04:08:42;;;;;;;44.10;36.13;;;;;;;7.30;100.00;102477.59;2071960;28;20169;-67
2022/11/28 04:10:08;;;;;;;39.80;34.03;;;;;;;7.28;100.00;102477.94;2072148;28;20178;-67
2022/11/28 04:11:40;;;;;;;38.47;33.45;;;;;;;7.27;100.00;102473.59;2064327;28;20196;-66
2022/11/28 04:12:52;;;;;;;43.92;36.55;;;;;;;7.23;100.00;102472.72;2072257;28;20185;-66
2022/11/28 04:14:12;;;;;;;44.05;35.33;;;;;;;7.18;100.00;102475.78;2072237;28;20737;-67
2022/11/28 04:15:19;;;;;;;42.35;34.80;;;;;;;7.12;100.00;102468.97;2070985;28;21003;-67
2022/11/28 04:16:19;;;;;;;44.60;34.30;;;;;;;7.07;100.00;102469.28;2071751;28;20198;-67
2022/11/28 04:17:30;;;;;;;42.37;35.47;;;;;;;6.58;100.00;102398.59;2071980;28;20273;-66
2022/11/28 04:18:52;;;;;;;40.97;34.88;;;;;;;7.01;100.00;102464.41;2072108;28;20182;-67
2022/11/28 04:20:04;;;;;;;42.08;35.55;;;;;;;7.02;100.00;102463.28;2071591;28;20671;-66
2022/11/28 04:21:19;;;;;;;42.00;35.55;;;;;;;7.02;100.00;102468.78;2071296;28;20605;-67
2022/11/28 04:22:34;;;;;;;42.60;36.25;;;;;;;7.00;100.00;102469.13;2071204;28;20654;-67
2022/11/28 04:23:38;;;;;;;43.90;36.28;;;;;;;6.98;100.00;102470.66;2071719;28;20172;-67
2022/11/28 04:24:53;;;;;;;43.60;36.83;;;;;;;6.45;100.00;102375.09;2072264;28;20181;-67
2022/11/28 04:26:04;;;;;;;43.47;35.78;;;;;;;7.04;100.00;102470.00;2071461;28;20256;-67
2022/11/28 04:27:08;;;;;;;41.20;35.30;;;;;;;6.80;100.00;102442.75;2071327;28;20194;-66
2022/11/28 04:28:17;;;;;;;41.38;34.92;;;;;;;7.01;100.00;102473.50;2071375;28;20186;-67
2022/11/28 04:29:22;;;;;;;41.47;35.90;;;;;;;6.99;100.00;102466.75;2069786;28;20240;-67
2022/11/28 04:30:22;;;;;;;44.63;36.65;;;;;;;6.92;100.00;102452.84;2071552;28;20619;-67
2022/11/28 04:31:25;;;;;;;43.60;36.73;;;;;;;7.02;100.00;102480.59;2071401;28;20197;-67
2022/11/28 04:32:28;;;;;;;41.72;35.25;;;;;;;6.50;100.00;102405.91;2072050;28;20182;-66
2022/11/28 04:33:33;;;;;;;45.08;37.08;;;;;;;6.96;100.00;102471.03;2071923;28;20671;-66
2022/11/28 04:34:35;;;;;;;41.42;35.85;;;;;;;7.02;100.00;102477.06;2072133;28;20288;-66
2022/11/28 04:35:46;;;;;;;42.80;36.60;;;;;;;7.05;100.00;102470.78;2070669;28;20207;-67
2022/11/28 04:36:48;;;;;;;42.42;36.08;;;;;;;5.88;100.00;102284.22;2071991;28;20815;-66
2022/11/28 04:37:52;;;;;;;43.05;36.75;;;;;;;6.74;100.00;102430.44;2071933;28;20655;-67
2022/11/28 04:38:55;;;;;;;42.17;36.55;;;;;;;7.03;100.00;102470.38;2071143;28;20216;-67
2022/11/28 04:39:55;;;;;;;42.67;36.55;;;;;;;6.96;100.00;102467.47;2072011;28;20279;-67
2022/11/28 04:41:00;;;;;;;42.87;35.70;;;;;;;6.95;100.00;102457.59;2071827;28;20182;-67
2022/11/28 04:42:15;;;;;;;43.38;36.15;;;;;;;6.93;100.00;102460.72;2071974;28;20204;-66
2022/11/28 04:43:26;;;;;;;44.50;36.20;;;;;;;6.99;100.00;102472.25;2071727;28;20215;-67
2022/11/28 04:44:38;;;;;;;46.38;37.67;;;;;;;6.83;100.00;102447.50;2071794;28;20198;-67
2022/11/28 04:45:48;;;;;;;44.88;37.15;;;;;;;7.02;100.00;102472.31;2070994;28;20170;-66
2022/11/28 04:46:53;;;;;;;47.20;36.60;;;;;;;6.98;100.00;102473.41;2071764;28;20269;-67
2022/11/28 04:47:53;;;;;;;43.47;36.75;;;;;;;6.50;100.00;102397.63;2071695;28;20633;-66
2022/11/28 04:48:54;;;;;;;44.53;37.77;;;;;;;6.86;100.00;102462.53;2071114;28;20223;-67
2022/11/28 04:49:54;;;;;;;47.07;38.60;;;;;;;6.71;100.00;102447.66;2071873;28;20189;-67
2022/11/28 04:51:01;;;;;;;46.53;37.93;;;;;;;6.90;100.00;102471.66;2071658;28;20612;-67
2022/11/28 04:52:18;;;;;;;44.42;37.22;;;;;;;6.90;100.00;102472.47;2071775;28;20291;-66
2022/11/28 04:53:46;;;;;;;45.65;35.63;;;;;;;6.87;100.00;102475.94;2070756;28;20628;-66
2022/11/28 04:55:07;;;;;;;40.92;34.65;;;;;;;6.84;100.00;102471.19;2071598;28;20315;-67
2022/11/28 04:56:19;;;;;;;46.67;36.63;;;;;;;6.77;100.00;102467.47;2071503;28;20185;-67
2022/11/28 04:57:34;;;;;;;43.60;36.20;;;;;;;6.75;100.00;102478.84;2071683;28;20182;-67
2022/11/28 04:58:45;;;;;;;42.97;36.25;;;;;;;6.18;100.00;102382.41;2071751;28;20193;-67
2022/11/28 04:59:47;;;;;;;50.08;37.03;;;;;;;6.02;100.00;102378.09;2071678;28;20268;-66
2022/11/28 05:00:49;;;;;;;44.83;36.80;;;;;;;6.53;100.00;102467.75;2071234;28;20193;-63
2022/11/28 05:01:50;;;;;;;44.65;36.92;;;;;;;6.59;100.00;102467.09;2066960;28;20679;-67
2022/11/28 05:02:52;;;;;;;45.27;37.00;;;;;;;6.42;100.00;102447.44;2069013;28;20602;-64
2022/11/28 05:03:53;;;;;;;44.00;34.85;;;;;;;6.59;100.00;102472.59;2069146;28;20224;-63
2022/11/28 05:04:54;;;;;;;46.00;37.53;;;;;;;6.53;100.00;102465.78;2070674;28;20181;-63
2022/11/28 05:05:55;;;;;;;47.17;37.30;;;;;;;6.30;100.00;102444.81;2070165;28;20289;-64
2022/11/28 05:07:07;;;;;;;44.63;35.87;;;;;;;5.79;100.00;102346.88;2070901;28;20232;-62
2022/11/28 05:08:07;;;;;;;43.17;35.33;;;;;;;6.58;100.00;102468.25;2071198;28;20177;-64
2022/11/28 05:09:10;;;;;;;45.13;36.20;;;;;;;6.59;100.00;102460.78;2069747;28;20286;-62